Odebolt, Iowa
Current Conditions -  °F | °C
As of 3:35 AM on Monday 24 Nov 2014 (Local Time) from KSLB Reporting Station
Overcast Overcast  
Wind Chill:   Ceiling: 1600
Heat Index: 25°   Visibility: 10mi
Dew Point: 18°   Wind: 26mph
Humidity: 74%   Direction: 310°NW
Pressure: 29.47"   Gusts: 33mph
Location:  42.31°N, 95.25°W
Report Text: KSLB 240935Z AUTO 31023G29KT 10SM OVC016 M04/M08 A2947 RMK AO2
Loading
Personal Weather Stations






























Interactive Weather Map New forecast layout! Learn more

10-Day Weather Forecast

Advertisements
Track Severe Weather on mobile